createdAt,value
2022-12-11T00:00:15.620Z,9.32
2022-12-11T00:03:18.419Z,9.43
2022-12-11T00:06:21.144Z,9.30
2022-12-11T00:09:24.202Z,9.23
2022-12-11T00:12:27.643Z,8.63
2022-12-11T00:15:30.615Z,9.43
2022-12-11T00:18:33.483Z,8.85
2022-12-11T00:21:35.661Z,8.63
2022-12-11T00:24:37.757Z,9.02
2022-12-11T00:27:40.582Z,8.75
2022-12-11T00:30:43.251Z,8.50
2022-12-11T00:33:45.126Z,8.65
2022-12-11T00:36:47.417Z,8.38
2022-12-11T00:39:50.595Z,8.50
2022-12-11T00:42:53.658Z,8.13
2022-12-11T00:45:56.513Z,8.63
2022-12-11T00:48:59.183Z,8.65
2022-12-11T00:52:01.317Z,8.80
2022-12-11T00:55:04.380Z,8.95
2022-12-11T00:58:08.766Z,8.55
2022-12-11T01:01:12.880Z,8.77
2022-12-11T01:04:16.117Z,8.38
2022-12-11T01:07:19.080Z,9.63
2022-12-11T01:10:22.090Z,9.02
2022-12-11T01:13:25.219Z,8.98
2022-12-11T01:16:28.033Z,8.85
2022-12-11T01:19:30.967Z,9.13
2022-12-11T01:22:34.106Z,9.60
2022-12-11T01:25:37.216Z,8.77
2022-12-11T01:28:39.613Z,9.48
2022-12-11T01:31:41.771Z,8.60
2022-12-11T01:34:44.752Z,8.77
2022-12-11T01:37:47.288Z,8.38
2022-12-11T01:40:49.829Z,8.35
2022-12-11T01:43:53.046Z,9.40
2022-12-11T01:46:55.896Z,9.25
2022-12-11T01:49:58.560Z,8.13
2022-12-11T01:53:00.963Z,8.73
2022-12-11T01:56:03.905Z,8.20
2022-12-11T01:59:06.735Z,9.10
2022-12-11T02:02:09.385Z,9.20
2022-12-11T02:05:12.039Z,8.98
2022-12-11T02:08:14.960Z,8.90
2022-12-11T02:11:17.888Z,9.23
2022-12-11T02:14:20.416Z,10.10
2022-12-11T02:17:22.835Z,9.20
2022-12-11T02:20:25.756Z,9.82
2022-12-11T02:23:28.766Z,9.38
2022-12-11T02:26:31.201Z,8.75
2022-12-11T02:29:34.276Z,8.98
2022-12-11T02:32:36.995Z,9.13
2022-12-11T02:35:39.767Z,9.00
2022-12-11T02:38:42.181Z,9.05
2022-12-11T02:41:44.968Z,8.77
2022-12-11T02:44:47.173Z,8.95
2022-12-11T02:47:50.020Z,9.00
2022-12-11T02:50:53.281Z,8.77
2022-12-11T02:53:56.135Z,8.45
2022-12-11T02:56:58.774Z,8.95
2022-12-11T03:00:01.544Z,8.60
2022-12-11T03:03:03.987Z,8.90
2022-12-11T03:06:07.119Z,9.20
2022-12-11T03:09:10.827Z,8.93
2022-12-11T03:12:13.289Z,9.50
2022-12-11T03:15:15.489Z,8.57
2022-12-11T03:18:17.813Z,10.15
2022-12-11T03:21:21.193Z,9.50
2022-12-11T03:24:23.770Z,9.65
2022-12-11T03:27:25.968Z,10.05
2022-12-11T03:30:28.632Z,8.95
2022-12-11T03:33:32.034Z,9.25
2022-12-11T03:36:35.055Z,8.63
2022-12-11T03:39:38.693Z,9.50
2022-12-11T03:42:41.466Z,9.30
2022-12-11T03:45:44.483Z,9.27
2022-12-11T03:48:47.322Z,8.77
2022-12-11T03:51:50.200Z,9.57
2022-12-11T03:54:52.542Z,9.23
2022-12-11T03:57:54.750Z,8.52
2022-12-11T04:00:56.944Z,9.07
2022-12-11T04:03:59.865Z,8.90
2022-12-11T04:07:06.573Z,9.02
2022-12-11T04:10:09.198Z,9.13
2022-12-11T04:13:11.455Z,9.88
2022-12-11T04:16:14.155Z,9.68
2022-12-11T04:19:16.546Z,8.95
2022-12-11T04:22:19.170Z,9.32
2022-12-11T04:25:21.752Z,9.32
2022-12-11T04:28:24.937Z,9.85
2022-12-11T04:31:27.923Z,9.60
2022-12-11T04:34:30.202Z,9.55
2022-12-11T04:37:32.379Z,9.77
2022-12-11T04:40:35.014Z,9.73
2022-12-11T04:43:37.659Z,9.15
2022-12-11T04:46:40.574Z,8.93
2022-12-11T04:49:43.484Z,9.38
2022-12-11T04:52:46.042Z,9.43
2022-12-11T04:55:48.171Z,8.70
2022-12-11T04:58:50.370Z,8.88
2022-12-11T05:01:52.692Z,8.75
2022-12-11T05:04:55.566Z,8.13
2022-12-11T05:07:58.060Z,8.65
2022-12-11T05:11:00.936Z,8.30
2022-12-11T05:14:02.919Z,9.75
2022-12-11T05:17:05.876Z,8.93
2022-12-11T05:20:08.252Z,9.25
2022-12-11T05:23:11.332Z,9.38
2022-12-11T05:26:13.699Z,8.85
2022-12-11T05:29:16.657Z,9.50
2022-12-11T05:32:19.392Z,8.82
2022-12-11T05:35:22.564Z,9.05
2022-12-11T05:38:25.076Z,9.65
2022-12-11T05:41:27.966Z,9.13
2022-12-11T05:44:30.725Z,8.93
2022-12-11T05:47:32.885Z,8.82
2022-12-11T05:50:35.715Z,8.80
2022-12-11T05:53:42.913Z,8.52
2022-12-11T05:56:46.015Z,8.55
2022-12-11T05:59:48.808Z,7.97
2022-12-11T06:02:51.871Z,7.93
2022-12-11T06:05:55.292Z,7.50
2022-12-11T06:08:58.094Z,7.80
2022-12-11T06:12:01.112Z,8.13
2022-12-11T06:15:04.372Z,7.95
2022-12-11T06:18:07.777Z,7.75
2022-12-11T06:21:10.639Z,8.27
2022-12-11T06:24:12.809Z,7.97
2022-12-11T06:27:15.388Z,7.90
2022-12-11T06:30:18.307Z,8.63
2022-12-11T06:33:21.040Z,7.97
2022-12-11T06:36:23.956Z,7.78
2022-12-11T06:39:26.560Z,8.57
2022-12-11T06:42:29.438Z,8.05
2022-12-11T06:45:32.133Z,8.43
2022-12-11T06:48:35.314Z,8.43
2022-12-11T06:51:37.843Z,8.05
2022-12-11T06:54:40.077Z,8.15
2022-12-11T06:57:42.603Z,7.95
2022-12-11T07:00:45.838Z,8.40
2022-12-11T07:03:48.755Z,7.75
2022-12-11T07:06:51.582Z,7.47
2022-12-11T07:09:54.459Z,7.47
2022-12-11T07:12:57.300Z,7.97
2022-12-11T07:16:00.140Z,7.28
2022-12-11T07:19:03.130Z,7.38
2022-12-11T07:22:05.557Z,7.90
2022-12-11T07:25:08.683Z,7.93
2022-12-11T07:28:15.200Z,8.13
2022-12-11T07:31:19.938Z,7.85
2022-12-11T07:34:23.204Z,7.85
2022-12-11T07:37:26.135Z,8.10
2022-12-11T07:40:29.286Z,8.30
2022-12-11T07:43:32.135Z,8.63
2022-12-11T07:46:34.403Z,8.68
2022-12-11T07:49:37.051Z,8.70
2022-12-11T07:52:39.804Z,8.60
2022-12-11T07:55:43.075Z,8.18
2022-12-11T07:58:46.318Z,7.88
2022-12-11T08:05:08.797Z,7.38
2022-12-11T08:08:11.911Z,7.60
2022-12-11T08:11:14.316Z,8.07
2022-12-11T08:14:16.882Z,6.80
2022-12-11T08:17:23.361Z,7.40
2022-12-11T08:20:29.871Z,7.43
2022-12-11T08:23:32.552Z,7.40
2022-12-11T08:26:35.189Z,6.57
2022-12-11T08:29:38.294Z,6.70
2022-12-11T08:32:41.389Z,6.82
2022-12-11T08:35:44.563Z,6.38
2022-12-11T08:38:47.344Z,7.25
2022-12-11T08:41:49.797Z,6.57
2022-12-11T08:44:52.293Z,6.30
2022-12-11T08:47:56.212Z,6.22
2022-12-11T08:50:59.810Z,6.65
2022-12-11T08:54:03.553Z,6.35
2022-12-11T08:57:06.274Z,6.90
2022-12-11T09:00:09.590Z,6.05
2022-12-11T09:03:13.336Z,5.80
2022-12-11T09:06:16.085Z,5.55
2022-12-11T09:09:19.443Z,5.93
2022-12-11T09:12:21.642Z,5.47
2022-12-11T09:15:23.923Z,5.25
2022-12-11T09:18:26.453Z,5.53
2022-12-11T09:21:29.728Z,5.78
2022-12-11T09:24:33.048Z,5.18
2022-12-11T09:27:36.479Z,5.03
2022-12-11T09:30:39.198Z,5.22
2022-12-11T09:33:41.878Z,5.30
2022-12-11T09:36:44.808Z,5.07
2022-12-11T09:39:49.766Z,4.90
2022-12-11T09:42:52.791Z,4.72
2022-12-11T09:45:55.632Z,5.22
2022-12-11T09:48:58.457Z,4.97
2022-12-11T09:52:00.650Z,4.80
2022-12-11T09:55:03.585Z,4.75
2022-12-11T09:58:06.265Z,4.80
2022-12-11T10:01:08.951Z,4.50
2022-12-11T10:04:11.856Z,4.47
2022-12-11T10:07:14.842Z,4.18
2022-12-11T10:10:18.117Z,4.15
2022-12-11T10:13:20.918Z,4.55
2022-12-11T10:16:24.292Z,4.57
2022-12-11T10:19:26.766Z,4.20
2022-12-11T10:22:29.628Z,4.93
2022-12-11T10:25:33.391Z,3.97
2022-12-11T10:28:36.261Z,4.15
2022-12-11T10:31:39.149Z,4.45
2022-12-11T10:34:42.146Z,4.18
2022-12-11T10:37:46.035Z,4.32
2022-12-11T10:40:49.748Z,3.88
2022-12-11T10:43:52.319Z,3.83
2022-12-11T10:46:54.546Z,4.22
2022-12-11T10:49:58.487Z,3.75
2022-12-11T10:53:01.654Z,4.10
2022-12-11T10:56:04.513Z,3.88
2022-12-11T10:59:07.659Z,4.05
2022-12-11T11:02:10.443Z,3.80
2022-12-11T11:05:13.570Z,4.07
2022-12-11T11:08:17.279Z,4.20
2022-12-11T11:11:20.979Z,3.88
2022-12-11T11:14:24.474Z,4.65
2022-12-11T11:17:32.081Z,5.32
2022-12-11T11:20:37.972Z,5.60
2022-12-11T11:23:44.879Z,6.07
2022-12-11T11:27:12.934Z,6.60
2022-12-11T11:30:12.335Z,9.05
2022-12-11T11:33:14.745Z,11.80
2022-12-11T11:36:17.738Z,8.25
2022-12-11T11:39:20.112Z,7.68
2022-12-11T11:42:22.634Z,7.35
2022-12-11T11:45:25.190Z,6.75
2022-12-11T11:48:28.111Z,6.35
2022-12-11T11:51:30.593Z,6.68
2022-12-11T11:54:33.383Z,6.18
2022-12-11T11:57:35.562Z,5.95
2022-12-11T12:00:38.259Z,5.97
2022-12-11T12:03:40.992Z,6.57
2022-12-11T12:06:50.370Z,6.20
2022-12-11T12:09:54.561Z,6.03
2022-12-11T12:12:58.131Z,5.78
2022-12-11T12:16:01.001Z,6.30
2022-12-11T12:19:04.396Z,6.53
2022-12-11T12:22:08.557Z,6.22
2022-12-11T12:25:11.603Z,6.45
2022-12-11T12:28:14.951Z,6.25
2022-12-11T12:31:17.857Z,6.88
2022-12-11T12:34:20.659Z,6.13
2022-12-11T12:37:23.586Z,5.85
2022-12-11T12:40:26.784Z,6.00
2022-12-11T12:43:29.828Z,5.97
2022-12-11T12:46:33.237Z,6.38
2022-12-11T12:49:36.145Z,6.50
2022-12-11T12:52:39.121Z,6.07
2022-12-11T12:55:41.725Z,6.00
2022-12-11T12:58:44.324Z,6.22
2022-12-11T13:01:46.882Z,6.00
2022-12-11T13:04:56.857Z,6.00
2022-12-11T13:07:59.304Z,6.40
2022-12-11T13:11:02.285Z,5.88
2022-12-11T13:14:05.412Z,6.18
2022-12-11T13:17:08.363Z,6.03
2022-12-11T13:20:11.271Z,6.05
2022-12-11T13:23:14.101Z,6.22
2022-12-11T13:26:16.929Z,6.32
2022-12-11T13:29:19.375Z,5.78
2022-12-11T13:32:21.964Z,6.25
2022-12-11T13:35:24.854Z,5.80
2022-12-11T13:38:27.672Z,5.97
2022-12-11T13:41:31.076Z,6.50
2022-12-11T13:44:33.709Z,6.55
2022-12-11T13:47:36.320Z,6.03
2022-12-11T13:50:38.551Z,6.15
2022-12-11T13:53:41.132Z,6.70
2022-12-11T13:56:44.115Z,5.90
2022-12-11T13:59:46.316Z,6.22
2022-12-11T14:02:49.244Z,6.25
2022-12-11T14:05:52.423Z,6.50
2022-12-11T14:08:55.615Z,6.72
2022-12-11T14:11:58.393Z,6.38
2022-12-11T14:15:00.948Z,6.30
2022-12-11T14:18:03.813Z,5.88
2022-12-11T14:21:06.305Z,5.78
2022-12-11T14:24:09.109Z,5.88
2022-12-11T14:27:12.182Z,6.20
2022-12-11T14:30:15.229Z,6.82
2022-12-11T14:33:18.237Z,5.95
2022-12-11T14:36:22.019Z,6.57
2022-12-11T14:39:25.243Z,6.38
2022-12-11T14:42:28.766Z,6.50
2022-12-11T14:45:31.533Z,6.72
2022-12-11T14:48:34.566Z,6.20
2022-12-11T14:51:37.445Z,5.65
2022-12-11T14:54:40.421Z,6.25
2022-12-11T14:57:43.582Z,6.55
2022-12-11T15:00:46.550Z,6.40
2022-12-11T15:03:49.645Z,5.93
2022-12-11T15:06:53.113Z,5.80
2022-12-11T15:09:56.072Z,6.00
2022-12-11T15:12:58.914Z,5.57
2022-12-11T15:16:01.828Z,5.32
2022-12-11T15:19:04.286Z,5.20
2022-12-11T15:22:07.286Z,5.03
2022-12-11T15:25:10.547Z,4.90
2022-12-11T15:28:14.332Z,5.22
2022-12-11T15:31:17.784Z,4.97
2022-12-11T15:34:20.392Z,4.80
2022-12-11T15:37:23.122Z,5.10
2022-12-11T15:40:26.804Z,5.43
2022-12-11T15:43:29.259Z,5.32
2022-12-11T15:46:31.748Z,5.18
2022-12-11T15:49:33.981Z,5.20
2022-12-11T15:52:37.023Z,5.10
2022-12-11T15:55:40.247Z,5.38
2022-12-11T15:58:43.414Z,5.32
2022-12-11T16:01:46.474Z,5.80
2022-12-11T16:04:49.775Z,5.55
2022-12-11T16:07:52.707Z,5.47
2022-12-11T16:10:55.364Z,5.90
2022-12-11T16:13:58.199Z,5.35
2022-12-11T16:17:01.170Z,5.78
2022-12-11T16:20:03.400Z,5.70
2022-12-11T16:23:05.694Z,5.75
2022-12-11T16:26:08.676Z,6.03
2022-12-11T16:29:11.773Z,5.97
2022-12-11T16:32:14.164Z,5.55
2022-12-11T16:35:17.067Z,5.20
2022-12-11T16:38:19.866Z,5.07
2022-12-11T16:41:22.555Z,4.35
2022-12-11T16:44:25.459Z,4.53
2022-12-11T16:47:28.965Z,4.63
2022-12-11T16:50:31.660Z,4.43
2022-12-11T16:53:34.396Z,4.53
2022-12-11T16:56:37.343Z,4.60
2022-12-11T16:59:40.417Z,4.40
2022-12-11T17:02:44.082Z,4.38
2022-12-11T17:05:47.461Z,4.60
2022-12-11T17:08:50.490Z,4.97
2022-12-11T17:11:53.264Z,4.75
2022-12-11T17:14:55.443Z,4.88
2022-12-11T17:17:58.303Z,4.95
2022-12-11T17:21:01.110Z,4.90
2022-12-11T17:24:04.035Z,4.57
2022-12-11T17:27:07.202Z,4.90
2022-12-11T17:30:10.134Z,4.82
2022-12-11T17:33:12.869Z,4.80
2022-12-11T17:36:15.668Z,5.20
2022-12-11T17:39:17.870Z,5.35
2022-12-11T17:42:20.145Z,5.63
2022-12-11T17:45:23.157Z,5.35
2022-12-11T17:48:26.095Z,5.68
2022-12-11T17:51:28.754Z,5.35
2022-12-11T17:54:31.681Z,5.07
2022-12-11T17:57:34.239Z,5.03
2022-12-11T18:00:36.955Z,4.57
2022-12-11T18:03:40.250Z,4.45
2022-12-11T18:06:43.286Z,4.88
2022-12-11T18:09:46.451Z,4.55
2022-12-11T18:12:49.449Z,4.85
2022-12-11T18:15:52.249Z,4.22
2022-12-11T18:18:55.702Z,4.38
2022-12-11T18:21:58.853Z,4.75
2022-12-11T18:25:06.415Z,4.60
2022-12-11T18:28:12.495Z,4.45
2022-12-11T18:31:15.677Z,4.57
2022-12-11T18:34:18.491Z,4.90
2022-12-11T18:37:26.299Z,4.78
2022-12-11T18:40:30.658Z,4.45
2022-12-11T18:43:33.674Z,4.60
2022-12-11T18:46:36.978Z,5.18
2022-12-11T18:49:39.435Z,4.72
2022-12-11T18:52:42.268Z,4.97
2022-12-11T18:55:45.039Z,5.20
2022-12-11T18:58:47.994Z,5.22
2022-12-11T19:01:50.594Z,5.28
2022-12-11T19:04:52.753Z,5.43
2022-12-11T19:07:56.511Z,5.50
2022-12-11T19:11:00.354Z,5.20
2022-12-11T19:14:03.241Z,4.95
2022-12-11T19:17:05.626Z,4.63
2022-12-11T19:20:32.295Z,4.60
2022-12-11T19:23:30.210Z,4.55
2022-12-11T19:26:33.259Z,4.20
2022-12-11T19:29:36.536Z,4.30
2022-12-11T19:32:39.915Z,4.32
2022-12-11T19:35:42.981Z,4.38
2022-12-11T19:38:45.667Z,4.30
2022-12-11T19:41:48.289Z,4.55
2022-12-11T19:44:50.908Z,4.38
2022-12-11T19:47:53.523Z,4.30
2022-12-11T19:50:55.780Z,4.20
2022-12-11T19:53:58.554Z,4.97
2022-12-11T19:57:02.175Z,4.47
2022-12-11T20:00:05.053Z,4.80
2022-12-11T20:03:14.613Z,4.60
2022-12-11T20:06:18.015Z,4.50
2022-12-11T20:09:21.493Z,4.45
2022-12-11T20:12:24.640Z,4.90
2022-12-11T20:15:28.021Z,4.70
2022-12-11T20:18:31.011Z,5.25
2022-12-11T20:21:34.183Z,5.32
2022-12-11T20:24:37.742Z,5.00
2022-12-11T20:27:41.432Z,4.65
2022-12-11T20:30:44.668Z,4.43
2022-12-11T20:33:47.152Z,4.40
2022-12-11T20:36:49.464Z,4.63
2022-12-11T20:39:52.367Z,4.57
2022-12-11T20:42:54.592Z,4.20
2022-12-11T20:45:57.178Z,4.07
2022-12-11T20:49:00.088Z,4.05
2022-12-11T20:52:02.603Z,4.25
2022-12-11T20:55:05.565Z,4.38
2022-12-11T20:58:08.514Z,3.90
2022-12-11T21:01:11.104Z,4.22
2022-12-11T21:04:15.429Z,4.38
2022-12-11T21:07:17.939Z,4.47
2022-12-11T21:10:20.857Z,4.47
2022-12-11T21:13:22.967Z,4.30
2022-12-11T21:16:25.699Z,4.50
2022-12-11T21:19:29.199Z,4.53
2022-12-11T21:22:32.209Z,4.40
2022-12-11T21:25:35.431Z,4.72
2022-12-11T21:28:38.449Z,4.82
2022-12-11T21:31:41.255Z,4.72
2022-12-11T21:34:44.173Z,4.47
2022-12-11T21:37:46.761Z,4.85
2022-12-11T21:40:49.871Z,4.57
2022-12-11T21:44:56.535Z,4.22
2022-12-11T21:47:14.808Z,4.00
2022-12-11T21:50:18.182Z,3.60
2022-12-11T21:53:20.288Z,3.92
2022-12-11T21:56:22.402Z,4.00
2022-12-11T21:59:25.001Z,4.15
2022-12-11T22:02:27.645Z,3.80
2022-12-11T22:05:30.238Z,3.85
2022-12-11T22:08:32.794Z,3.55
2022-12-11T22:11:35.700Z,4.13
2022-12-11T22:14:38.573Z,3.97
2022-12-11T22:17:40.815Z,3.75
2022-12-11T22:20:43.381Z,4.00
2022-12-11T22:23:46.507Z,4.05
2022-12-11T22:26:49.773Z,3.95
2022-12-11T22:29:52.809Z,4.32
2022-12-11T22:32:54.940Z,4.30
2022-12-11T22:35:57.871Z,4.80
2022-12-11T22:39:00.994Z,4.72
2022-12-11T22:42:03.469Z,4.63
2022-12-11T22:45:05.983Z,4.60
2022-12-11T22:48:08.438Z,4.30
2022-12-11T22:51:10.632Z,4.45
2022-12-11T22:54:13.361Z,3.95
2022-12-11T22:57:15.500Z,3.75
2022-12-11T23:00:18.277Z,3.45
2022-12-11T23:03:21.492Z,3.53
2022-12-11T23:06:24.690Z,3.47
2022-12-11T23:09:27.935Z,3.78
2022-12-11T23:12:30.879Z,3.50
2022-12-11T23:15:33.343Z,3.75
2022-12-11T23:18:35.954Z,3.53
2022-12-11T23:21:38.469Z,3.63
2022-12-11T23:24:41.048Z,3.88
2022-12-11T23:27:44.165Z,3.78
2022-12-11T23:30:46.548Z,3.97
2022-12-11T23:33:49.020Z,4.10
2022-12-11T23:36:51.582Z,4.20
2022-12-11T23:39:54.287Z,4.50
2022-12-11T23:42:57.277Z,4.28
2022-12-11T23:46:00.085Z,4.38
2022-12-11T23:49:02.463Z,4.65
2022-12-11T23:52:05.470Z,4.45
2022-12-11T23:55:08.232Z,4.75
2022-12-11T23:58:10.923Z,4.70
